createdAt,value
2023-02-23T00:01:42.663Z,120.72
2023-02-23T00:04:11.166Z,117.63
2023-02-23T00:06:39.861Z,114.07
2023-02-23T00:09:17.921Z,125.00
2023-02-23T00:11:46.168Z,123.88
2023-02-23T00:14:14.412Z,122.30
2023-02-23T00:16:45.515Z,126.45
2023-02-23T00:19:14.788Z,122.20
2023-02-23T00:21:43.688Z,125.25
2023-02-23T00:24:17.905Z,125.63
2023-02-23T00:26:47.841Z,122.53
2023-02-23T00:29:20.730Z,120.30
2023-02-23T00:31:52.459Z,121.57
2023-02-23T00:34:23.586Z,128.05
2023-02-23T00:36:54.360Z,123.28
2023-02-23T00:39:26.830Z,124.70
2023-02-23T00:41:56.384Z,120.47
2023-02-23T00:44:25.879Z,130.50
2023-02-23T00:46:55.519Z,123.78
2023-02-23T00:49:24.177Z,126.38
2023-02-23T00:51:53.146Z,130.23
2023-02-23T00:54:22.784Z,121.60
2023-02-23T00:56:52.137Z,133.20
2023-02-23T00:59:21.347Z,134.15
2023-02-23T01:01:50.026Z,123.75
2023-02-23T01:04:23.386Z,134.02
2023-02-23T01:06:52.026Z,129.35
2023-02-23T01:09:28.005Z,131.30
2023-02-23T01:12:01.544Z,126.72
2023-02-23T01:14:31.307Z,129.85
2023-02-23T01:16:59.756Z,132.20
2023-02-23T01:19:29.642Z,128.27
2023-02-23T01:21:57.936Z,135.57
2023-02-23T01:24:26.317Z,134.32
2023-02-23T01:26:55.099Z,137.55
2023-02-23T01:29:23.303Z,129.90
2023-02-23T01:31:52.166Z,123.75
2023-02-23T01:34:22.588Z,135.40
2023-02-23T01:36:52.415Z,139.27
2023-02-23T01:39:23.171Z,131.20
2023-02-23T01:41:54.212Z,125.53
2023-02-23T01:45:24.089Z,128.82
2023-02-23T01:47:56.213Z,121.05
2023-02-23T01:50:26.894Z,129.63
2023-02-23T01:52:58.762Z,135.55
2023-02-23T01:55:29.947Z,135.43
2023-02-23T01:58:07.632Z,139.18
2023-02-23T02:00:37.660Z,141.23
2023-02-23T02:03:12.216Z,132.73
2023-02-23T02:05:41.282Z,126.00
2023-02-23T02:08:12.875Z,131.48
2023-02-23T02:10:44.585Z,135.95
2023-02-23T02:13:19.799Z,142.38
2023-02-23T02:16:22.256Z,145.25
2023-02-23T02:19:45.098Z,134.48
2023-02-23T02:22:54.646Z,136.25
2023-02-23T02:25:54.521Z,125.40
2023-02-23T02:29:13.869Z,124.15
2023-02-23T02:32:39.372Z,129.82
2023-02-23T02:35:38.810Z,125.45
2023-02-23T02:38:20.792Z,122.45
2023-02-23T02:41:00.914Z,129.05
2023-02-23T02:43:40.663Z,127.40
2023-02-23T02:46:15.879Z,129.35
2023-02-23T02:48:52.038Z,127.82
2023-02-23T02:51:28.502Z,122.22
2023-02-23T02:54:08.217Z,107.20
2023-02-23T02:56:40.825Z,125.65
2023-02-23T02:59:30.975Z,123.78
2023-02-23T03:02:17.782Z,116.90
2023-02-23T03:05:03.930Z,130.90
2023-02-23T03:07:56.082Z,126.05
2023-02-23T03:10:53.125Z,118.78
2023-02-23T03:13:55.025Z,123.72
2023-02-23T03:16:50.460Z,117.97
2023-02-23T03:19:42.534Z,126.13
2023-02-23T03:22:40.528Z,110.85
2023-02-23T03:25:33.470Z,102.50
2023-02-23T03:28:29.390Z,131.73
2023-02-23T03:31:28.446Z,116.93
2023-02-23T03:34:22.182Z,119.50
2023-02-23T03:37:14.341Z,120.80
2023-02-23T03:40:07.405Z,109.78
2023-02-23T03:42:56.458Z,106.35
2023-02-23T03:45:44.917Z,114.88
2023-02-23T03:48:34.615Z,115.38
2023-02-23T03:51:25.474Z,114.78
2023-02-23T03:54:18.716Z,115.53
2023-02-23T03:57:10.251Z,115.40
2023-02-23T04:00:01.722Z,114.15
2023-02-23T04:02:52.564Z,115.60
2023-02-23T04:05:40.360Z,115.90
2023-02-23T04:08:31.625Z,113.60
2023-02-23T04:11:30.992Z,119.60
2023-02-23T04:14:04.689Z,102.13
2023-02-23T04:16:32.864Z,115.45
2023-02-23T04:19:02.836Z,114.38
2023-02-23T04:21:31.185Z,111.30
2023-02-23T04:24:01.315Z,113.25
2023-02-23T04:26:29.559Z,111.97
2023-02-23T04:28:57.819Z,106.95
2023-02-23T04:31:26.674Z,116.82
2023-02-23T04:33:56.527Z,111.28
2023-02-23T04:36:26.904Z,106.63
2023-02-23T04:38:55.110Z,107.78
2023-02-23T04:41:23.439Z,109.82
2023-02-23T04:43:51.673Z,123.32
2023-02-23T04:46:20.343Z,112.32
2023-02-23T04:48:49.039Z,113.40
2023-02-23T04:51:17.571Z,109.93
2023-02-23T04:53:47.279Z,112.10
2023-02-23T04:56:16.147Z,103.28
2023-02-23T04:58:44.954Z,110.40
2023-02-23T05:01:13.244Z,110.97
2023-02-23T05:03:41.566Z,104.05
2023-02-23T05:06:09.887Z,112.45
2023-02-23T05:08:38.133Z,103.85
2023-02-23T05:11:09.307Z,97.50
2023-02-23T05:13:37.822Z,111.63
2023-02-23T05:16:09.474Z,99.32
2023-02-23T05:18:37.809Z,97.03
2023-02-23T05:21:09.078Z,98.63
2023-02-23T05:23:38.110Z,102.00
2023-02-23T05:26:12.089Z,104.85
2023-02-23T05:28:42.799Z,111.75
2023-02-23T05:31:12.281Z,100.28
2023-02-23T05:33:42.896Z,108.00
2023-02-23T05:36:13.032Z,98.60
2023-02-23T05:38:41.673Z,99.93
2023-02-23T05:41:14.165Z,105.53
2023-02-23T05:43:42.803Z,113.18
2023-02-23T05:46:13.655Z,99.88
2023-02-23T05:48:42.364Z,101.55
2023-02-23T05:51:14.880Z,108.20
2023-02-23T05:53:43.339Z,113.88
2023-02-23T05:56:20.287Z,106.90
2023-02-23T05:58:48.914Z,98.85
2023-02-23T06:01:18.823Z,108.10
2023-02-23T06:03:47.968Z,100.05
2023-02-23T06:06:17.041Z,112.65
2023-02-23T06:08:45.766Z,106.68
2023-02-23T06:11:15.597Z,105.40
2023-02-23T06:13:44.036Z,109.95
2023-02-23T06:16:12.502Z,102.03
2023-02-23T06:18:41.435Z,108.45
2023-02-23T06:21:10.928Z,114.57
2023-02-23T06:23:39.447Z,109.60
2023-02-23T06:26:08.370Z,110.97
2023-02-23T06:28:37.947Z,106.95
2023-02-23T06:33:59.362Z,111.15
2023-02-23T06:36:27.631Z,104.70
2023-02-23T06:38:58.988Z,104.88
2023-02-23T06:41:27.999Z,111.75
2023-02-23T06:43:58.656Z,119.18
2023-02-23T06:46:27.040Z,119.68
2023-02-23T06:48:56.869Z,123.13
2023-02-23T06:51:25.317Z,109.18
2023-02-23T06:53:55.008Z,127.28
2023-02-23T06:56:23.831Z,121.88
2023-02-23T06:58:52.150Z,122.78
2023-02-23T07:01:22.077Z,115.45
2023-02-23T07:03:50.348Z,113.70
2023-02-23T07:06:18.852Z,122.70
2023-02-23T07:08:47.132Z,122.32
2023-02-23T07:11:18.801Z,129.07
2023-02-23T07:13:47.285Z,125.65
2023-02-23T07:16:16.528Z,125.25
2023-02-23T07:18:46.308Z,122.22
2023-02-23T07:21:14.603Z,137.05
2023-02-23T07:23:42.914Z,132.32
2023-02-23T07:26:17.260Z,141.57
2023-02-23T07:28:45.822Z,137.20
2023-02-23T07:31:14.094Z,143.18
2023-02-23T07:33:42.740Z,139.07
2023-02-23T07:36:13.266Z,124.65
2023-02-23T07:38:41.857Z,144.93
2023-02-23T07:41:10.817Z,144.68
2023-02-23T07:43:39.135Z,149.20
2023-02-23T07:46:09.688Z,148.70
2023-02-23T07:48:38.510Z,147.27
2023-02-23T07:51:12.921Z,134.93
2023-02-23T07:53:41.723Z,137.68
2023-02-23T07:56:11.980Z,143.35
2023-02-23T07:58:41.269Z,150.40
2023-02-23T08:01:10.050Z,148.75
2023-02-23T08:03:38.797Z,134.18
2023-02-23T08:06:09.084Z,140.75
2023-02-23T08:08:38.694Z,137.98
2023-02-23T08:11:07.466Z,148.25
2023-02-23T08:13:37.192Z,130.48
2023-02-23T08:16:06.133Z,139.75
2023-02-23T08:18:34.646Z,120.80
2023-02-23T08:21:07.837Z,122.50
2023-02-23T08:23:38.178Z,126.57
2023-02-23T08:26:06.751Z,113.25
2023-02-23T08:28:35.073Z,131.52
2023-02-23T08:31:05.653Z,124.22
2023-02-23T08:33:36.253Z,129.13
2023-02-23T08:36:04.750Z,117.82
2023-02-23T08:38:32.962Z,126.20
2023-02-23T08:41:07.073Z,124.85
2023-02-23T08:43:35.361Z,113.50
2023-02-23T08:46:03.617Z,121.13
2023-02-23T08:48:31.828Z,122.25
2023-02-23T08:51:00.876Z,118.75
2023-02-23T08:53:30.876Z,109.40
2023-02-23T08:56:00.691Z,124.18
2023-02-23T08:58:31.616Z,120.20
2023-02-23T09:01:00.165Z,113.35
2023-02-23T09:03:30.677Z,109.07
2023-02-23T09:06:00.972Z,109.78
2023-02-23T09:08:29.314Z,114.13
2023-02-23T09:10:57.640Z,96.78
2023-02-23T09:13:25.953Z,106.80
2023-02-23T09:15:55.593Z,96.35
2023-02-23T09:18:27.866Z,83.45
2023-02-23T09:20:56.511Z,83.40
2023-02-23T09:23:25.653Z,81.40
2023-02-23T09:25:53.857Z,79.82
2023-02-23T09:28:22.209Z,81.00
2023-02-23T09:30:50.513Z,75.60
2023-02-23T09:33:20.123Z,64.05
2023-02-23T09:35:48.972Z,62.13
2023-02-23T09:38:17.226Z,66.97
2023-02-23T09:40:49.734Z,60.85
2023-02-23T09:43:26.840Z,55.05
2023-02-23T09:46:05.638Z,50.53
2023-02-23T09:48:36.189Z,52.67
2023-02-23T09:51:09.633Z,48.75
2023-02-23T09:53:41.887Z,53.13
2023-02-23T09:56:18.801Z,46.83
2023-02-23T09:58:47.050Z,44.15
2023-02-23T10:01:46.394Z,47.80
2023-02-23T10:04:22.410Z,42.55
2023-02-23T10:07:00.927Z,42.45
2023-02-23T10:09:45.808Z,45.35
2023-02-23T10:12:24.555Z,44.92
2023-02-23T10:15:11.307Z,44.22
2023-02-23T10:17:46.997Z,39.95
2023-02-23T10:20:26.138Z,42.25
2023-02-23T10:22:58.928Z,39.80
2023-02-23T10:25:33.129Z,35.97
2023-02-23T10:28:03.403Z,39.47
2023-02-23T10:30:34.833Z,46.35
2023-02-23T10:33:13.199Z,34.10
2023-02-23T10:35:46.326Z,36.78
2023-02-23T10:38:18.369Z,34.30
2023-02-23T10:40:51.532Z,31.38
2023-02-23T10:43:20.058Z,32.58
2023-02-23T10:45:51.494Z,26.85
2023-02-23T10:48:24.380Z,25.92
2023-02-23T10:50:58.960Z,25.05
2023-02-23T10:53:32.809Z,24.85
2023-02-23T10:56:12.616Z,27.20
2023-02-23T10:58:45.079Z,26.83
2023-02-23T11:01:14.656Z,27.27
2023-02-23T11:03:50.020Z,24.60
2023-02-23T11:06:35.967Z,26.10
2023-02-23T11:09:33.060Z,23.27
2023-02-23T11:12:22.928Z,24.50
2023-02-23T11:14:57.894Z,25.13
2023-02-23T11:17:33.739Z,28.73
2023-02-23T11:20:06.885Z,22.98
2023-02-23T11:22:42.770Z,27.25
2023-02-23T11:25:22.678Z,24.17
2023-02-23T11:27:53.872Z,24.92
2023-02-23T11:30:29.537Z,22.85
2023-02-23T11:33:09.510Z,22.20
2023-02-23T11:35:39.232Z,19.48
2023-02-23T11:38:25.447Z,22.85
2023-02-23T11:41:02.459Z,21.15
2023-02-23T11:43:34.514Z,22.63
2023-02-23T11:46:04.105Z,21.23
2023-02-23T11:48:39.421Z,21.60
2023-02-23T11:51:10.321Z,26.45
2023-02-23T11:53:46.744Z,23.77
2023-02-23T11:56:24.194Z,21.27
2023-02-23T11:58:55.401Z,22.35
2023-02-23T12:01:36.639Z,25.55
2023-02-23T12:04:09.606Z,16.25
2023-02-23T12:06:40.996Z,21.40
2023-02-23T12:09:23.288Z,20.25
2023-02-23T12:12:01.430Z,19.20
2023-02-23T12:14:35.578Z,17.50
2023-02-23T12:17:14.538Z,16.70
2023-02-23T12:19:49.199Z,18.52
2023-02-23T12:22:25.704Z,16.77
2023-02-23T12:25:00.718Z,16.67
2023-02-23T12:27:36.018Z,17.45
2023-02-23T12:30:14.209Z,17.73
2023-02-23T12:32:51.714Z,17.23
2023-02-23T12:35:25.622Z,19.48
2023-02-23T12:38:01.840Z,15.85
2023-02-23T12:40:36.886Z,17.83
2023-02-23T12:43:13.806Z,14.98
2023-02-23T12:45:46.807Z,23.42
2023-02-23T12:48:34.571Z,17.05
2023-02-23T12:51:08.365Z,15.82
2023-02-23T12:53:41.707Z,16.90
2023-02-23T12:56:36.783Z,23.25
2023-02-23T12:59:22.333Z,20.38
2023-02-23T13:01:58.486Z,15.48
2023-02-23T13:04:54.784Z,17.88
2023-02-23T13:07:34.535Z,17.73
2023-02-23T13:10:19.167Z,20.42
2023-02-23T13:13:02.556Z,16.88
2023-02-23T13:15:54.468Z,21.98
2023-02-23T13:18:29.472Z,20.00
2023-02-23T13:21:11.182Z,22.20
2023-02-23T13:23:50.414Z,17.98
2023-02-23T13:26:30.394Z,21.30
2023-02-23T13:29:05.291Z,20.42
2023-02-23T13:31:38.014Z,23.13
2023-02-23T13:34:15.662Z,21.13
2023-02-23T13:36:45.941Z,25.92
2023-02-23T13:39:48.051Z,23.67
2023-02-23T13:42:34.384Z,22.92
2023-02-23T13:45:34.331Z,25.88
2023-02-23T13:48:13.999Z,23.33
2023-02-23T13:50:51.665Z,24.40
2023-02-23T13:53:42.659Z,20.35
2023-02-23T13:56:19.025Z,22.10
2023-02-23T14:01:31.854Z,25.42
2023-02-23T14:04:03.494Z,25.75
2023-02-23T14:06:37.301Z,25.52
2023-02-23T14:09:13.341Z,24.38
2023-02-23T14:11:49.584Z,24.60
2023-02-23T14:14:44.997Z,27.58
2023-02-23T14:17:44.365Z,27.17
2023-02-23T14:20:54.341Z,32.08
2023-02-23T14:23:37.119Z,26.23
2023-02-23T14:26:19.585Z,28.63
2023-02-23T14:29:18.676Z,29.17
2023-02-23T14:32:23.052Z,30.23
2023-02-23T14:34:54.342Z,27.73
2023-02-23T14:37:33.336Z,31.05
2023-02-23T14:40:17.047Z,31.27
2023-02-23T14:42:50.500Z,26.83
2023-02-23T14:45:25.692Z,29.50
2023-02-23T14:48:04.121Z,32.85
2023-02-23T14:50:35.594Z,33.42
2023-02-23T14:53:06.323Z,31.55
2023-02-23T14:55:36.734Z,34.80
2023-02-23T14:58:19.460Z,34.75
2023-02-23T15:00:49.050Z,31.63
2023-02-23T15:03:19.101Z,28.55
2023-02-23T15:05:52.689Z,34.03
2023-02-23T15:08:25.524Z,31.40
2023-02-23T15:11:04.576Z,28.05
2023-02-23T15:13:39.826Z,28.15
2023-02-23T15:16:14.325Z,27.88
2023-02-23T15:18:46.020Z,34.42
2023-02-23T15:21:22.904Z,28.65
2023-02-23T15:23:56.091Z,27.38
2023-02-23T15:26:34.596Z,27.45
2023-02-23T15:29:16.109Z,28.83
2023-02-23T15:31:52.215Z,29.65
2023-02-23T15:34:28.985Z,30.13
2023-02-23T15:37:00.409Z,33.70
2023-02-23T15:39:43.334Z,34.00
2023-02-23T15:42:16.037Z,32.47
2023-02-23T15:44:45.520Z,30.65
2023-02-23T15:47:28.455Z,32.40
2023-02-23T15:50:10.468Z,31.17
2023-02-23T15:52:48.436Z,34.60
2023-02-23T15:55:25.456Z,31.17
2023-02-23T15:58:00.158Z,33.75
2023-02-23T16:00:35.640Z,26.42
2023-02-23T16:03:10.153Z,27.38
2023-02-23T16:05:47.004Z,22.65
2023-02-23T16:08:23.803Z,18.95
2023-02-23T16:11:19.530Z,19.92
2023-02-23T16:13:48.872Z,22.83
2023-02-23T16:16:25.415Z,26.35
2023-02-23T16:19:01.349Z,17.42
2023-02-23T16:21:32.437Z,22.52
2023-02-23T16:24:09.416Z,16.48
2023-02-23T16:26:46.470Z,19.15
2023-02-23T16:29:19.460Z,22.17
2023-02-23T16:31:50.629Z,15.73
2023-02-23T16:34:25.725Z,15.98
2023-02-23T16:37:00.151Z,19.60
2023-02-23T16:39:30.943Z,23.90
2023-02-23T16:42:00.741Z,20.70
2023-02-23T16:44:42.949Z,24.67
2023-02-23T16:47:33.393Z,24.60
2023-02-23T16:50:13.692Z,24.17
2023-02-23T16:52:51.803Z,24.95
2023-02-23T16:55:25.987Z,25.58
2023-02-23T16:57:57.417Z,25.55
2023-02-23T17:00:28.916Z,22.77
2023-02-23T17:02:58.665Z,27.65
2023-02-23T17:05:27.707Z,27.92
2023-02-23T17:07:58.944Z,24.00
2023-02-23T17:10:30.568Z,22.75
2023-02-23T17:13:02.600Z,25.83
2023-02-23T17:15:34.196Z,30.02
2023-02-23T17:18:02.448Z,30.33
2023-02-23T17:20:32.773Z,19.10
2023-02-23T17:23:03.548Z,30.30
2023-02-23T17:25:32.230Z,31.40
2023-02-23T17:28:03.901Z,30.67
2023-02-23T17:30:32.797Z,30.70
2023-02-23T17:33:02.787Z,34.72
2023-02-23T17:35:33.471Z,30.45
2023-02-23T17:38:11.940Z,36.15
2023-02-23T17:40:40.482Z,33.30
2023-02-23T17:43:08.915Z,36.97
2023-02-23T17:45:37.587Z,35.05
2023-02-23T17:48:06.695Z,35.97
2023-02-23T17:50:35.344Z,26.88
2023-02-23T17:53:05.317Z,34.97
2023-02-23T17:55:37.186Z,37.78
2023-02-23T17:58:09.307Z,37.42
2023-02-23T18:00:38.923Z,36.67
2023-02-23T18:03:07.509Z,40.40
2023-02-23T18:05:36.610Z,36.90
2023-02-23T18:08:07.056Z,36.55
2023-02-23T18:10:37.797Z,39.00
2023-02-23T18:13:10.488Z,42.13
2023-02-23T18:15:39.383Z,42.40
2023-02-23T18:18:10.449Z,44.38
2023-02-23T18:20:39.154Z,40.00
2023-02-23T18:23:10.218Z,35.15
2023-02-23T18:25:38.578Z,37.85
2023-02-23T18:28:10.278Z,36.35
2023-02-23T18:30:39.542Z,38.53
2023-02-23T18:33:09.283Z,42.03
2023-02-23T18:35:40.105Z,35.20
2023-02-23T18:38:15.911Z,33.70
2023-02-23T18:40:45.228Z,36.70
2023-02-23T18:43:13.856Z,33.28
2023-02-23T18:45:43.417Z,42.50
2023-02-23T18:48:13.659Z,31.42
2023-02-23T18:50:42.310Z,26.45
2023-02-23T18:53:14.054Z,30.13
2023-02-23T18:55:44.648Z,34.75
2023-02-23T18:58:13.059Z,34.35
2023-02-23T19:00:44.810Z,35.05
2023-02-23T19:03:13.702Z,37.15
2023-02-23T19:05:53.157Z,36.42
2023-02-23T19:08:23.486Z,31.45
2023-02-23T19:10:52.502Z,34.13
2023-02-23T19:13:22.899Z,26.90
2023-02-23T19:15:53.497Z,26.55
2023-02-23T19:18:22.395Z,24.48
2023-02-23T19:20:52.475Z,29.75
2023-02-23T19:23:22.736Z,28.08
2023-02-23T19:25:51.721Z,30.70
2023-02-23T19:28:20.383Z,38.20
2023-02-23T19:30:49.797Z,35.38
2023-02-23T19:33:23.369Z,29.02
2023-02-23T19:35:52.167Z,27.45
2023-02-23T19:38:24.896Z,27.42
2023-02-23T19:40:53.706Z,32.05
2023-02-23T19:43:21.919Z,27.70
2023-02-23T19:45:50.437Z,24.60
2023-02-23T19:48:19.169Z,28.55
2023-02-23T19:50:49.837Z,17.25
2023-02-23T19:53:18.821Z,24.25
2023-02-23T19:55:49.621Z,20.65
2023-02-23T19:58:19.568Z,28.75
2023-02-23T20:00:48.796Z,24.80
2023-02-23T20:03:19.874Z,20.55
2023-02-23T20:05:48.317Z,26.73
2023-02-23T20:08:19.555Z,19.15
2023-02-23T20:10:49.339Z,21.27
2023-02-23T20:13:20.866Z,27.35
2023-02-23T20:15:49.879Z,24.95
2023-02-23T20:18:26.259Z,35.35
2023-02-23T20:20:58.068Z,52.75
2023-02-23T20:23:27.304Z,31.70
2023-02-23T20:26:00.254Z,49.50
2023-02-23T20:28:29.327Z,37.47
2023-02-23T20:30:59.731Z,35.55
2023-02-23T20:33:28.556Z,29.08
2023-02-23T20:36:01.477Z,25.92
2023-02-23T20:38:32.017Z,23.52
2023-02-23T20:41:03.214Z,21.50
2023-02-23T20:43:32.468Z,30.40
2023-02-23T20:46:02.900Z,23.08
2023-02-23T20:48:33.916Z,21.85
2023-02-23T20:51:02.549Z,21.38
2023-02-23T20:53:31.353Z,21.27
2023-02-23T20:56:06.467Z,28.08
2023-02-23T20:58:34.970Z,25.10
2023-02-23T21:01:06.676Z,23.88
2023-02-23T21:03:36.096Z,19.33
2023-02-23T21:06:08.842Z,31.23
2023-02-23T21:08:42.320Z,26.02
2023-02-23T21:11:20.733Z,22.92
2023-02-23T21:13:49.645Z,23.48
2023-02-23T21:16:20.857Z,19.48
2023-02-23T21:19:04.081Z,22.00
2023-02-23T21:21:40.289Z,21.00
2023-02-23T21:24:10.089Z,16.10
2023-02-23T21:26:39.793Z,20.55
2023-02-23T21:29:22.315Z,23.02
2023-02-23T21:32:08.933Z,21.73
2023-02-23T21:34:37.708Z,26.88
2023-02-23T21:37:08.705Z,19.80
2023-02-23T21:39:37.001Z,20.33
2023-02-23T21:42:09.259Z,22.70
2023-02-23T21:44:37.562Z,19.33
2023-02-23T21:47:07.269Z,25.33
2023-02-23T21:49:35.531Z,26.13
2023-02-23T21:52:04.869Z,23.33
2023-02-23T21:54:37.006Z,18.60
2023-02-23T21:57:06.710Z,25.25
2023-02-23T21:59:36.353Z,19.05
2023-02-23T22:02:04.826Z,25.50
2023-02-23T22:04:34.141Z,22.27
2023-02-23T22:07:03.605Z,18.27
2023-02-23T22:09:31.839Z,27.40
2023-02-23T22:12:00.185Z,30.77
2023-02-23T22:14:29.805Z,18.05
2023-02-23T22:16:58.777Z,20.35
2023-02-23T22:19:27.129Z,17.65
2023-02-23T22:21:55.408Z,22.13
2023-02-23T22:24:24.047Z,21.10
2023-02-23T22:26:54.494Z,19.27
2023-02-23T22:29:24.542Z,19.20
2023-02-23T22:31:54.494Z,13.00
2023-02-23T22:34:23.213Z,19.65
2023-02-23T22:36:51.737Z,18.85
2023-02-23T22:39:20.514Z,21.60
2023-02-23T22:41:49.752Z,27.63
2023-02-23T22:44:21.433Z,20.13
2023-02-23T22:46:53.308Z,20.77
2023-02-23T22:49:24.703Z,25.08
2023-02-23T22:51:52.968Z,15.32
2023-02-23T22:54:24.135Z,24.88
2023-02-23T22:56:52.780Z,20.90
2023-02-23T22:59:21.010Z,19.90
2023-02-23T23:01:50.356Z,20.58
2023-02-23T23:04:23.150Z,22.75
2023-02-23T23:06:52.273Z,20.33
2023-02-23T23:09:21.416Z,16.25
2023-02-23T23:11:51.066Z,21.70
2023-02-23T23:14:20.408Z,22.45
2023-02-23T23:16:51.139Z,20.10
2023-02-23T23:19:24.762Z,21.70
2023-02-23T23:21:55.654Z,18.13
2023-02-23T23:24:25.700Z,15.95
2023-02-23T23:26:59.413Z,22.75
2023-02-23T23:29:29.887Z,21.45
2023-02-23T23:32:06.746Z,17.75
2023-02-23T23:34:36.519Z,22.67
2023-02-23T23:37:04.787Z,14.02
2023-02-23T23:39:33.101Z,18.17
2023-02-23T23:42:02.154Z,20.15
2023-02-23T23:44:30.388Z,20.85
2023-02-23T23:46:59.728Z,20.55
2023-02-23T23:49:28.021Z,17.50
2023-02-23T23:51:57.834Z,22.85
2023-02-23T23:54:29.209Z,17.55
2023-02-23T23:56:57.776Z,19.40
2023-02-23T23:59:27.544Z,20.15
